Time;durP1;ratioP1;P1;durP2;ratioP2;P2;SDS_P1;SDS_P2;PMS_P1;PMS_P2;Temp;Humidity;BMP_temperature;BMP_pressure;BME280_temperature;BME280_humidity;BME280_pressure;Samples;Min_cycle;Max_cycle;Signal;HPM_P1;HPM_P2
2023/08/12 00:00:29;;;;;;;9.73;2.50;;;;;;;;;;4384390;32;317669;-81
2023/08/12 00:02:56;;;;;;;4.12;2.97;;;;;;;;;;4375117;32;316785;-80
2023/08/12 00:05:23;;;;;;;5.90;2.53;;;;;;;;;;4385633;32;316839;-81
2023/08/12 00:07:50;;;;;;;3.87;3.00;;;;;;;;;;4375010;32;317448;-81
2023/08/12 00:10:17;;;;;;;4.05;3.25;;;;;;;;;;4385140;32;317308;-81
2023/08/12 00:12:45;;;;;;;10.10;3.00;;;;;;;;;;4374735;32;316754;-82
2023/08/12 00:15:12;;;;;;;5.50;2.80;;;;;;;;;;4365950;32;318150;-81
2023/08/12 00:17:41;;;;;;;3.72;2.80;;;;;;;;;;4383186;32;317732;-81
2023/08/12 00:20:10;;;;;;;4.85;3.20;;;;;;;;;;4374206;32;317621;-81
2023/08/12 00:22:37;;;;;;;7.37;3.22;;;;;;;;;;4384415;32;338290;-80
2023/08/12 00:25:05;;;;;;;7.80;3.50;;;;;;;;;;4374731;32;317414;-81
2023/08/12 00:27:31;;;;;;;3.40;3.00;;;;;;;;;;4383559;32;316699;-80
2023/08/12 00:30:00;;;;;;;6.97;3.35;;;;;;;;;;4383803;32;317401;-81
2023/08/12 00:32:27;;;;;;;6.07;3.30;;;;;;;;;;4383919;32;316739;-80
2023/08/12 00:34:54;;;;;;;6.62;3.08;;;;;;;;;;4385086;32;316787;-80
2023/08/12 00:37:21;;;;;;;3.17;2.37;;;;;;;;;;4374802;32;317406;-80
2023/08/12 00:39:47;;;;;;;3.60;2.53;;;;;;;;;;4383821;32;317204;-80
2023/08/12 00:42:14;;;;;;;5.70;3.08;;;;;;;;;;4373245;32;328352;-80
2023/08/12 00:44:41;;;;;;;7.72;3.28;;;;;;;;;;4384501;32;317415;-80
2023/08/12 00:47:09;;;;;;;3.47;2.80;;;;;;;;;;4374111;32;316973;-81
2023/08/12 00:49:37;;;;;;;4.72;2.90;;;;;;;;;;4383972;32;333463;-81
2023/08/12 00:52:05;;;;;;;6.65;2.92;;;;;;;;;;4373430;32;317489;-80
2023/08/12 00:54:32;;;;;;;3.78;2.80;;;;;;;;;;4383632;32;316666;-80
2023/08/12 00:56:59;;;;;;;3.50;2.70;;;;;;;;;;4374044;32;316639;-81
2023/08/12 00:59:27;;;;;;;4.82;2.78;;;;;;;;;;4384388;32;317309;-80
2023/08/12 01:01:53;;;;;;;4.40;3.00;;;;;;;;;;4382928;32;317151;-81
2023/08/12 01:04:22;;;;;;;7.22;2.90;;;;;;;;;;4373458;32;317023;-81
2023/08/12 01:06:49;;;;;;;6.43;2.87;;;;;;;;;;4384252;32;317426;-81
2023/08/12 01:09:15;;;;;;;6.03;2.60;;;;;;;;;;4373002;32;317087;-81
2023/08/12 01:11:51;;;;;;;3.95;3.20;;;;;;;;;;4383123;32;316441;-81
2023/08/12 01:14:23;;;;;;;3.30;2.80;;;;;;;;;;4357016;32;316662;-81
2023/08/12 01:16:54;;;;;;;5.10;3.25;;;;;;;;;;4378806;32;317038;-81
2023/08/12 01:19:33;;;;;;;8.50;2.95;;;;;;;;;;4359642;32;316680;-81
2023/08/12 01:22:01;;;;;;;6.47;2.72;;;;;;;;;;4372343;32;317432;-81
2023/08/12 01:24:35;;;;;;;11.15;3.17;;;;;;;;;;4383257;32;328632;-80
2023/08/12 01:27:02;;;;;;;5.37;3.22;;;;;;;;;;4359920;32;317707;-80
2023/08/12 01:29:28;;;;;;;4.40;3.33;;;;;;;;;;4382544;32;317334;-80
2023/08/12 01:32:03;;;;;;;4.72;2.78;;;;;;;;;;4391481;32;317226;-80
2023/08/12 01:34:40;;;;;;;3.37;2.83;;;;;;;;;;4383792;32;414264;-81
2023/08/12 01:37:10;;;;;;;3.83;2.87;;;;;;;;;;4384602;32;316548;-79
2023/08/12 01:39:40;;;;;;;2.92;2.62;;;;;;;;;;4395059;32;316911;-80
2023/08/12 01:42:08;;;;;;;4.07;2.80;;;;;;;;;;4377387;32;317626;-79
2023/08/12 01:44:34;;;;;;;3.40;2.87;;;;;;;;;;4383307;32;317242;-80
2023/08/12 01:47:02;;;;;;;4.45;2.75;;;;;;;;;;4371762;32;339493;-80
2023/08/12 01:49:29;;;;;;;5.15;3.03;;;;;;;;;;4383588;32;317400;-79
2023/08/12 01:51:56;;;;;;;3.90;3.12;;;;;;;;;;4383426;32;317337;-79
2023/08/12 01:54:23;;;;;;;3.45;2.62;;;;;;;;;;4373499;32;317284;-79
2023/08/12 01:56:51;;;;;;;4.12;2.72;;;;;;;;;;4382596;32;317452;-79
2023/08/12 01:59:17;;;;;;;3.37;2.67;;;;;;;;;;4372651;32;317569;-79
2023/08/12 02:01:44;;;;;;;5.00;3.05;;;;;;;;;;4380859;32;349368;-79
2023/08/12 02:04:11;;;;;;;4.50;3.00;;;;;;;;;;4373587;32;316754;-79
2023/08/12 02:06:38;;;;;;;3.50;2.65;;;;;;;;;;4383157;32;317577;-79
2023/08/12 02:09:04;;;;;;;5.82;3.17;;;;;;;;;;4372405;32;316650;-79
2023/08/12 02:11:31;;;;;;;3.50;2.45;;;;;;;;;;4382460;32;316814;-79
2023/08/12 02:13:59;;;;;;;4.05;2.85;;;;;;;;;;4383349;32;317118;-79
2023/08/12 02:16:26;;;;;;;8.00;2.80;;;;;;;;;;4367991;32;417764;-79
2023/08/12 02:18:53;;;;;;;9.10;2.90;;;;;;;;;;4383652;32;317539;-80
2023/08/12 02:21:20;;;;;;;6.65;2.90;;;;;;;;;;4373287;32;317370;-79
2023/08/12 02:23:46;;;;;;;4.53;3.10;;;;;;;;;;4382730;32;317142;-79
2023/08/12 02:26:13;;;;;;;6.10;3.40;;;;;;;;;;4372280;32;330306;-79
2023/08/12 02:28:40;;;;;;;3.15;2.78;;;;;;;;;;4383075;32;316564;-80
2023/08/12 02:31:08;;;;;;;4.22;2.78;;;;;;;;;;4372812;32;317406;-80
2023/08/12 02:33:35;;;;;;;4.07;2.72;;;;;;;;;;4383258;32;317263;-80
2023/08/12 02:36:01;;;;;;;4.78;3.30;;;;;;;;;;4372256;32;317076;-79
2023/08/12 02:38:28;;;;;;;3.37;3.03;;;;;;;;;;4382053;32;317389;-79
2023/08/12 02:40:55;;;;;;;3.72;2.75;;;;;;;;;;4382881;32;329634;-79
2023/08/12 02:43:22;;;;;;;4.95;2.90;;;;;;;;;;4372434;32;339457;-79
2023/08/12 02:45:49;;;;;;;6.93;3.22;;;;;;;;;;4382794;32;317400;-79
2023/08/12 02:48:17;;;;;;;4.57;3.05;;;;;;;;;;4373084;32;316530;-79
2023/08/12 02:50:44;;;;;;;5.05;2.97;;;;;;;;;;4383004;32;317077;-80
2023/08/12 02:53:11;;;;;;;4.18;3.17;;;;;;;;;;4372960;32;317090;-80
2023/08/12 02:55:38;;;;;;;6.85;3.25;;;;;;;;;;4372443;32;316782;-79
2023/08/12 02:58:05;;;;;;;3.92;3.30;;;;;;;;;;4358169;32;317740;-79
2023/08/12 03:00:32;;;;;;;8.40;3.90;;;;;;;;;;4367765;32;316759;-79
2023/08/12 03:02:59;;;;;;;4.93;3.42;;;;;;;;;;4362058;32;317234;-83
2023/08/12 03:05:27;;;;;;;6.12;4.12;;;;;;;;;;4361051;32;317523;-79
2023/08/12 03:07:54;;;;;;;8.32;4.00;;;;;;;;;;4354178;32;316702;-80
2023/08/12 03:10:21;;;;;;;5.90;3.97;;;;;;;;;;4356715;32;316816;-80
2023/08/12 03:12:47;;;;;;;6.18;3.47;;;;;;;;;;4366669;32;317448;-80
2023/08/12 03:15:14;;;;;;;9.13;3.93;;;;;;;;;;4355981;32;338364;-80
2023/08/12 03:17:41;;;;;;;5.30;3.80;;;;;;;;;;4369457;32;316655;-80
2023/08/12 03:20:09;;;;;;;4.97;3.15;;;;;;;;;;4361114;32;317344;-79
2023/08/12 03:22:38;;;;;;;4.20;3.35;;;;;;;;;;4370973;32;317504;-79
2023/08/12 03:25:06;;;;;;;4.95;3.60;;;;;;;;;;4359264;32;317451;-80
2023/08/12 03:27:33;;;;;;;5.68;3.05;;;;;;;;;;4370382;32;317057;-80
2023/08/12 03:29:59;;;;;;;6.80;3.45;;;;;;;;;;4359203;32;316688;-80
2023/08/12 03:32:27;;;;;;;5.30;3.70;;;;;;;;;;4370220;32;317749;-79
2023/08/12 03:34:53;;;;;;;8.82;3.75;;;;;;;;;;4369521;32;317371;-80
2023/08/12 03:37:20;;;;;;;6.37;3.20;;;;;;;;;;4359409;32;318619;-80
2023/08/12 03:39:48;;;;;;;9.63;3.55;;;;;;;;;;4370402;32;316612;-80
2023/08/12 03:42:16;;;;;;;5.28;2.95;;;;;;;;;;4360369;32;324942;-80
2023/08/12 03:44:43;;;;;;;4.50;3.45;;;;;;;;;;4370373;32;317199;-80
2023/08/12 03:47:10;;;;;;;3.70;3.33;;;;;;;;;;4360653;32;317173;-80
2023/08/12 03:49:37;;;;;;;5.20;3.45;;;;;;;;;;4370264;32;316467;-81
2023/08/12 03:52:06;;;;;;;5.30;2.40;;;;;;;;;;4359929;32;317509;-80
2023/08/12 03:54:33;;;;;;;16.23;3.25;;;;;;;;;;4370347;32;317371;-80
2023/08/12 03:57:02;;;;;;;18.25;9.68;;;;;;;;;;4372025;32;345927;-79
2023/08/12 03:59:28;;;;;;;22.65;15.57;;;;;;;;;;4383981;32;318261;-80
2023/08/12 04:01:55;;;;;;;10.55;7.18;;;;;;;;;;4389685;32;318673;-80
2023/08/12 04:04:22;;;;;;;5.47;3.92;;;;;;;;;;4390577;32;318325;-80
2023/08/12 04:06:51;;;;;;;8.55;3.47;;;;;;;;;;4400248;32;317601;-80
2023/08/12 04:09:18;;;;;;;4.87;3.37;;;;;;;;;;4389506;32;316685;-80
2023/08/12 04:11:45;;;;;;;7.18;3.65;;;;;;;;;;4398836;32;317057;-80
2023/08/12 04:14:13;;;;;;;3.92;3.08;;;;;;;;;;4360693;32;317102;-80
2023/08/12 04:16:40;;;;;;;4.28;2.95;;;;;;;;;;4362078;32;317752;-80
2023/08/12 04:19:07;;;;;;;5.68;3.78;;;;;;;;;;4358794;32;317561;-80
2023/08/12 04:21:33;;;;;;;4.47;3.90;;;;;;;;;;4368858;32;317469;-80
2023/08/12 04:24:00;;;;;;;7.22;4.53;;;;;;;;;;4360404;32;317546;-80
2023/08/12 04:26:27;;;;;;;11.00;4.25;;;;;;;;;;4383908;32;317504;-80
2023/08/12 04:28:54;;;;;;;6.05;3.80;;;;;;;;;;4383807;32;317744;-80
2023/08/12 04:31:22;;;;;;;6.15;4.47;;;;;;;;;;4373690;32;316549;-80
2023/08/12 04:33:52;;;;;;;4.57;3.60;;;;;;;;;;4384924;32;316897;-80
2023/08/12 04:36:19;;;;;;;6.00;3.17;;;;;;;;;;4374781;32;317540;-80
2023/08/12 04:38:46;;;;;;;7.75;3.65;;;;;;;;;;4385101;32;317422;-82
2023/08/12 04:41:12;;;;;;;8.73;4.50;;;;;;;;;;4373933;32;317213;-80
2023/08/12 04:43:39;;;;;;;9.57;4.40;;;;;;;;;;4384715;32;317316;-80
2023/08/12 04:46:06;;;;;;;9.77;4.93;;;;;;;;;;4374577;32;317194;-80
2023/08/12 04:48:34;;;;;;;5.85;3.78;;;;;;;;;;4383594;32;317102;-80
2023/08/12 04:51:02;;;;;;;6.30;3.75;;;;;;;;;;4374539;32;316444;-80
2023/08/12 04:53:29;;;;;;;7.87;4.25;;;;;;;;;;4384609;32;316758;-80
2023/08/12 04:55:56;;;;;;;5.68;4.68;;;;;;;;;;4366283;32;317767;-80
2023/08/12 04:58:23;;;;;;;7.40;4.03;;;;;;;;;;4359490;32;317178;-80
2023/08/12 05:00:51;;;;;;;9.35;4.22;;;;;;;;;;4369132;32;316521;-80
2023/08/12 05:03:18;;;;;;;4.00;3.58;;;;;;;;;;4374279;32;316644;-80
2023/08/12 05:05:50;;;;;;;5.57;4.37;;;;;;;;;;4384511;32;317425;-80
2023/08/12 05:08:17;;;;;;;6.68;4.05;;;;;;;;;;4372909;32;316415;-81
2023/08/12 05:10:44;;;;;;;6.28;3.65;;;;;;;;;;4368201;32;317273;-80
2023/08/12 05:13:10;;;;;;;5.43;3.90;;;;;;;;;;4357194;32;337671;-80
2023/08/12 05:15:37;;;;;;;11.95;4.35;;;;;;;;;;4368750;32;317076;-80
2023/08/12 05:18:05;;;;;;;8.15;4.40;;;;;;;;;;4359120;32;318208;-80
2023/08/12 05:20:31;;;;;;;5.60;4.28;;;;;;;;;;4367215;32;345402;-80
2023/08/12 05:23:00;;;;;;;8.15;4.28;;;;;;;;;;4368906;32;317198;-80
2023/08/12 05:25:26;;;;;;;8.07;4.30;;;;;;;;;;4365437;32;418045;-80
2023/08/12 05:27:54;;;;;;;5.97;3.67;;;;;;;;;;4383863;32;316633;-80
2023/08/12 05:30:22;;;;;;;5.45;3.30;;;;;;;;;;4372396;32;324619;-80
2023/08/12 05:32:49;;;;;;;6.18;3.40;;;;;;;;;;4382642;32;316697;-80
2023/08/12 05:35:15;;;;;;;9.60;4.93;;;;;;;;;;4374078;32;322224;-80
2023/08/12 05:37:42;;;;;;;4.22;3.42;;;;;;;;;;4383649;32;316738;-80
2023/08/12 05:40:11;;;;;;;8.10;3.35;;;;;;;;;;4373961;32;316640;-80
2023/08/12 05:42:40;;;;;;;6.45;3.12;;;;;;;;;;4383611;32;317125;-80
2023/08/12 05:45:08;;;;;;;4.43;3.70;;;;;;;;;;4373600;32;317340;-79
2023/08/12 05:47:35;;;;;;;6.68;3.20;;;;;;;;;;4375518;32;316661;-79
2023/08/12 05:50:02;;;;;;;4.70;3.00;;;;;;;;;;4373662;32;316652;-79
2023/08/12 05:52:29;;;;;;;8.25;3.42;;;;;;;;;;4382017;32;316665;-79
2023/08/12 05:54:55;;;;;;;3.25;2.80;;;;;;;;;;4383852;32;315713;-80
2023/08/12 05:57:23;;;;;;;4.90;3.12;;;;;;;;;;4373914;32;317194;-80
2023/08/12 05:59:50;;;;;;;3.70;3.30;;;;;;;;;;4383494;32;316960;-80
2023/08/12 06:02:18;;;;;;;5.85;3.60;;;;;;;;;;4381836;32;317381;-81
2023/08/12 06:04:45;;;;;;;4.00;3.20;;;;;;;;;;4394844;32;316796;-80
2023/08/12 06:07:12;;;;;;;5.03;3.83;;;;;;;;;;4358283;32;330428;-80
2023/08/12 06:09:40;;;;;;;4.20;3.70;;;;;;;;;;4368425;32;316678;-80
2023/08/12 06:12:07;;;;;;;4.80;3.40;;;;;;;;;;4358433;32;316491;-80
2023/08/12 06:14:38;;;;;;;4.65;4.15;;;;;;;;;;4360904;32;316418;-80
2023/08/12 06:17:05;;;;;;;7.30;3.73;;;;;;;;;;4369168;32;325066;-80
2023/08/12 06:19:32;;;;;;;5.35;3.67;;;;;;;;;;4383590;32;317337;-80
2023/08/12 06:21:59;;;;;;;5.86;3.98;;;;;;;;;;4380077;32;316724;-82
2023/08/12 06:24:26;;;;;;;7.12;3.85;;;;;;;;;;4380485;32;349287;-80
2023/08/12 06:26:53;;;;;;;6.37;3.90;;;;;;;;;;4393821;32;317376;-81
2023/08/12 06:29:20;;;;;;;10.13;4.03;;;;;;;;;;4385076;32;316730;-80
2023/08/12 06:31:48;;;;;;;5.43;4.43;;;;;;;;;;4393387;32;317500;-79
2023/08/12 06:34:15;;;;;;;8.15;4.18;;;;;;;;;;4376366;32;317422;-79
2023/08/12 06:36:42;;;;;;;5.43;4.55;;;;;;;;;;4380760;32;352616;-79
2023/08/12 06:39:08;;;;;;;4.80;3.87;;;;;;;;;;4373490;32;317181;-80
2023/08/12 06:41:35;;;;;;;5.78;4.28;;;;;;;;;;4383307;32;317241;-80
2023/08/12 06:44:04;;;;;;;5.22;4.12;;;;;;;;;;4372047;32;317067;-79
2023/08/12 06:46:30;;;;;;;5.60;3.60;;;;;;;;;;4382864;32;317041;-79
2023/08/12 06:48:59;;;;;;;3.72;2.62;;;;;;;;;;4383070;32;316506;-80
2023/08/12 06:51:26;;;;;;;5.25;2.83;;;;;;;;;;4370249;32;416807;-79
2023/08/12 06:53:52;;;;;;;4.22;2.75;;;;;;;;;;4385976;32;316546;-80
2023/08/12 06:56:20;;;;;;;3.67;2.87;;;;;;;;;;4390665;32;317250;-80
2023/08/12 06:58:46;;;;;;;6.05;2.45;;;;;;;;;;4400804;32;320212;-80
2023/08/12 07:01:14;;;;;;;5.07;2.90;;;;;;;;;;4387268;32;317251;-80
2023/08/12 07:03:41;;;;;;;3.53;2.75;;;;;;;;;;4385891;32;316726;-80
2023/08/12 07:06:09;;;;;;;2.72;2.45;;;;;;;;;;4374898;32;317305;-80
2023/08/12 07:08:36;;;;;;;2.75;2.40;;;;;;;;;;4385846;32;317191;-79
2023/08/12 07:11:04;;;;;;;5.10;3.20;;;;;;;;;;4375249;32;316863;-80
2023/08/12 07:13:33;;;;;;;3.75;2.42;;;;;;;;;;4384196;32;316654;-80
2023/08/12 07:16:00;;;;;;;3.65;3.22;;;;;;;;;;4373788;32;316480;-81
2023/08/12 07:18:26;;;;;;;4.95;3.28;;;;;;;;;;4385546;32;316437;-81
2023/08/12 07:20:53;;;;;;;3.97;2.62;;;;;;;;;;4385735;32;316621;-80
2023/08/12 07:23:21;;;;;;;4.37;2.75;;;;;;;;;;4374340;32;316493;-80
2023/08/12 07:25:48;;;;;;;3.85;2.40;;;;;;;;;;4385830;32;316606;-79
2023/08/12 07:28:15;;;;;;;3.87;2.60;;;;;;;;;;4375683;32;317499;-80
2023/08/12 07:30:42;;;;;;;6.97;2.40;;;;;;;;;;4384480;32;317104;-80
2023/08/12 07:33:09;;;;;;;2.40;2.17;;;;;;;;;;4375662;32;316832;-80
2023/08/12 07:35:35;;;;;;;2.83;2.37;;;;;;;;;;4385659;32;316473;-80
2023/08/12 07:38:02;;;;;;;3.28;2.65;;;;;;;;;;4375287;32;317183;-80
2023/08/12 07:40:30;;;;;;;5.30;2.40;;;;;;;;;;4384663;32;317472;-80
2023/08/12 07:42:57;;;;;;;2.65;2.15;;;;;;;;;;4385955;32;317163;-81
2023/08/12 07:45:24;;;;;;;5.70;2.55;;;;;;;;;;4371712;32;416892;-80
2023/08/12 07:47:51;;;;;;;4.43;2.90;;;;;;;;;;4384737;32;317221;-80
2023/08/12 07:50:18;;;;;;;4.03;2.60;;;;;;;;;;4374292;32;317488;-80
2023/08/12 07:52:46;;;;;;;6.55;2.83;;;;;;;;;;4385156;32;317190;-80
2023/08/12 07:55:13;;;;;;;4.12;2.67;;;;;;;;;;4375535;32;317090;-80
2023/08/12 07:57:42;;;;;;;11.43;3.03;;;;;;;;;;4385299;32;316365;-80
2023/08/12 08:00:11;;;;;;;3.37;2.40;;;;;;;;;;4375345;32;317959;-80
2023/08/12 08:02:38;;;;;;;4.18;2.50;;;;;;;;;;4384851;32;316869;-81
2023/08/12 08:05:06;;;;;;;4.80;2.35;;;;;;;;;;4374182;32;316962;-80
2023/08/12 08:07:33;;;;;;;2.85;2.12;;;;;;;;;;4384192;32;316498;-80
2023/08/12 08:10:00;;;;;;;2.75;2.10;;;;;;;;;;4375334;32;322990;-80
2023/08/12 08:12:26;;;;;;;2.97;2.20;;;;;;;;;;4384918;32;316904;-80
2023/08/12 08:14:55;;;;;;;4.05;2.28;;;;;;;;;;4384955;32;317140;-80
2023/08/12 08:17:21;;;;;;;3.30;2.33;;;;;;;;;;4374704;32;317186;-80
2023/08/12 08:19:48;;;;;;;5.22;2.12;;;;;;;;;;4384281;32;316467;-80
2023/08/12 08:22:15;;;;;;;2.22;2.03;;;;;;;;;;4373777;32;317006;-79
2023/08/12 08:24:42;;;;;;;9.75;2.85;;;;;;;;;;4383816;32;317281;-80
2023/08/12 08:27:08;;;;;;;3.40;2.15;;;;;;;;;;4374930;32;317122;-79
2023/08/12 08:29:35;;;;;;;3.50;2.60;;;;;;;;;;4384329;32;316703;-79
2023/08/12 08:32:03;;;;;;;3.10;2.50;;;;;;;;;;4373564;32;317135;-79
2023/08/12 08:34:30;;;;;;;2.37;2.00;;;;;;;;;;4384936;32;317110;-79
2023/08/12 08:36:57;;;;;;;6.07;2.22;;;;;;;;;;4383299;32;317164;-79
2023/08/12 08:39:24;;;;;;;2.33;2.00;;;;;;;;;;4372743;32;350697;-79
2023/08/12 08:41:51;;;;;;;4.40;1.90;;;;;;;;;;4384414;32;316413;-79
2023/08/12 08:44:21;;;;;;;4.40;1.73;;;;;;;;;;4373440;32;317287;-79
2023/08/12 08:46:49;;;;;;;5.65;1.95;;;;;;;;;;4384557;32;317416;-80
2023/08/12 08:49:17;;;;;;;3.75;1.87;;;;;;;;;;4374173;32;316537;-80
2023/08/12 08:51:44;;;;;;;4.45;1.85;;;;;;;;;;4383512;32;316527;-80
2023/08/12 08:54:13;;;;;;;3.12;2.22;;;;;;;;;;4375278;32;316422;-80
2023/08/12 08:56:40;;;;;;;9.70;2.00;;;;;;;;;;4399517;32;316909;-80
2023/08/12 08:59:07;;;;;;;2.83;2.42;;;;;;;;;;4375576;32;316340;-80
2023/08/12 09:01:35;;;;;;;1.73;1.62;;;;;;;;;;4399203;32;317159;-80
2023/08/12 09:04:03;;;;;;;3.03;2.12;;;;;;;;;;4389476;32;316389;-80
2023/08/12 09:06:34;;;;;;;2.67;1.83;;;;;;;;;;4398298;32;317313;-82
2023/08/12 09:09:02;;;;;;;2.70;2.03;;;;;;;;;;4389534;32;316783;-79
2023/08/12 09:11:30;;;;;;;7.10;1.67;;;;;;;;;;4399385;32;316486;-80
2023/08/12 09:13:57;;;;;;;1.90;1.70;;;;;;;;;;4397466;32;316380;-80
2023/08/12 09:16:24;;;;;;;2.80;1.77;;;;;;;;;;4388882;32;317248;-80
2023/08/12 09:18:55;;;;;;;3.05;2.28;;;;;;;;;;4398889;32;316413;-79
2023/08/12 09:21:22;;;;;;;2.80;1.73;;;;;;;;;;4399069;32;208480;-79
2023/08/12 09:23:50;;;;;;;1.75;1.65;;;;;;;;;;4394498;32;316337;-80
2023/08/12 09:26:19;;;;;;;5.07;1.90;;;;;;;;;;4373095;32;341804;-81
2023/08/12 09:28:47;;;;;;;2.85;2.10;;;;;;;;;;4383936;32;317650;-80
2023/08/12 09:31:24;;;;;;;2.97;1.80;;;;;;;;;;4374088;32;316754;-79
2023/08/12 09:33:51;;;;;;;3.30;2.22;;;;;;;;;;4384130;32;316511;-80
2023/08/12 09:36:19;;;;;;;3.58;1.73;;;;;;;;;;4372504;32;316860;-80
2023/08/12 09:38:46;;;;;;;3.17;1.67;;;;;;;;;;4381475;32;352720;-80
2023/08/12 09:41:15;;;;;;;4.60;2.08;;;;;;;;;;4372965;32;341672;-79
2023/08/12 09:43:43;;;;;;;2.28;1.85;;;;;;;;;;4383594;32;316345;-79
2023/08/12 09:46:13;;;;;;;2.67;2.00;;;;;;;;;;4357686;32;316824;-79
2023/08/12 09:48:40;;;;;;;5.40;1.80;;;;;;;;;;4382991;32;316640;-80
2023/08/12 09:51:08;;;;;;;3.15;2.03;;;;;;;;;;4373178;32;317299;-80
2023/08/12 09:53:36;;;;;;;3.10;1.98;;;;;;;;;;4383212;32;317047;-80
2023/08/12 09:56:12;;;;;;;3.22;1.70;;;;;;;;;;4383546;32;319191;-80
2023/08/12 09:58:42;;;;;;;2.78;2.03;;;;;;;;;;4397433;32;353646;-80
2023/08/12 10:01:13;;;;;;;5.00;1.55;;;;;;;;;;4388001;32;316453;-80
2023/08/12 10:03:42;;;;;;;2.72;1.70;;;;;;;;;;4398628;32;317478;-80
2023/08/12 10:06:09;;;;;;;2.83;1.80;;;;;;;;;;4388769;32;316962;-79
2023/08/12 10:08:36;;;;;;;4.45;1.75;;;;;;;;;;4397023;32;323199;-79
2023/08/12 10:11:04;;;;;;;5.72;1.58;;;;;;;;;;4387504;32;316819;-80
2023/08/12 10:13:31;;;;;;;2.35;1.95;;;;;;;;;;4398065;32;316675;-80
2023/08/12 10:16:00;;;;;;;3.35;1.70;;;;;;;;;;4398702;32;316914;-80
2023/08/12 10:18:28;;;;;;;2.12;1.65;;;;;;;;;;4385700;32;416733;-80
2023/08/12 10:20:58;;;;;;;2.45;1.50;;;;;;;;;;4397385;32;317464;-79
2023/08/12 10:23:26;;;;;;;2.28;1.42;;;;;;;;;;4382172;32;418397;-79
2023/08/12 10:25:54;;;;;;;2.28;1.60;;;;;;;;;;4382744;32;317109;-79
2023/08/12 10:28:21;;;;;;;4.18;1.62;;;;;;;;;;4371078;32;347760;-80
2023/08/12 10:30:48;;;;;;;4.72;1.87;;;;;;;;;;4383198;32;316652;-79
2023/08/12 10:33:18;;;;;;;1.70;1.30;;;;;;;;;;4372043;32;317247;-80
2023/08/12 10:35:47;;;;;;;3.00;1.50;;;;;;;;;;4383134;32;317151;-80
2023/08/12 10:38:17;;;;;;;6.43;2.58;;;;;;;;;;4372609;32;317271;-81
2023/08/12 10:40:45;;;;;;;8.02;1.60;;;;;;;;;;4381873;32;317119;-81
2023/08/12 10:43:13;;;;;;;3.50;1.80;;;;;;;;;;4373115;32;317366;-81
2023/08/12 10:45:44;;;;;;;3.58;1.62;;;;;;;;;;4382739;32;316725;-81
2023/08/12 10:48:19;;;;;;;3.83;1.67;;;;;;;;;;4370483;32;355262;-82
2023/08/12 10:50:48;;;;;;;2.95;1.85;;;;;;;;;;4381729;32;317514;-81
2023/08/12 10:53:29;;;;;;;3.95;2.33;;;;;;;;;;4371852;32;317158;-81
2023/08/12 10:55:58;;;;;;;2.60;1.92;;;;;;;;;;4382895;32;317075;-81
2023/08/12 10:58:27;;;;;;;2.83;1.95;;;;;;;;;;4370160;32;416472;-81
2023/08/12 11:00:55;;;;;;;2.70;1.62;;;;;;;;;;4383173;32;317329;-82
2023/08/12 11:03:23;;;;;;;2.72;1.62;;;;;;;;;;4372893;32;317439;-81
2023/08/12 11:05:55;;;;;;;2.50;1.70;;;;;;;;;;4381951;32;317334;-81
2023/08/12 11:08:25;;;;;;;2.45;1.35;;;;;;;;;;4373071;32;317285;-80
2023/08/12 11:10:55;;;;;;;2.95;1.70;;;;;;;;;;4381880;32;316931;-81
2023/08/12 11:13:21;;;;;;;2.37;1.62;;;;;;;;;;4376745;32;317074;-81
2023/08/12 11:15:49;;;;;;;2.25;1.60;;;;;;;;;;4388783;32;316516;-81
2023/08/12 11:18:18;;;;;;;4.00;1.85;;;;;;;;;;4374156;32;317602;-80
2023/08/12 11:20:48;;;;;;;3.58;1.80;;;;;;;;;;4398005;32;317174;-82
2023/08/12 11:23:14;;;;;;;5.05;2.03;;;;;;;;;;4388689;32;316167;-81
2023/08/12 11:25:44;;;;;;;4.15;2.08;;;;;;;;;;4391013;32;317407;-81
2023/08/12 11:28:11;;;;;;;1.92;1.45;;;;;;;;;;4373331;32;317209;-81
2023/08/12 11:30:43;;;;;;;1.80;1.60;;;;;;;;;;4383017;32;317596;-81
2023/08/12 11:33:11;;;;;;;8.52;2.33;;;;;;;;;;4372970;32;317280;-81
2023/08/12 11:35:39;;;;;;;1.70;1.35;;;;;;;;;;4382560;32;316549;-81
2023/08/12 11:38:08;;;;;;;2.83;1.48;;;;;;;;;;4373986;32;317154;-81
2023/08/12 11:40:35;;;;;;;2.15;1.62;;;;;;;;;;4385498;32;317279;-81
2023/08/12 11:43:03;;;;;;;1.58;1.45;;;;;;;;;;4374947;32;317169;-81
2023/08/12 11:45:29;;;;;;;1.75;1.65;;;;;;;;;;4385662;32;316631;-81
2023/08/12 11:47:56;;;;;;;3.58;1.75;;;;;;;;;;4378108;32;317559;-81
2023/08/12 11:50:25;;;;;;;2.35;1.62;;;;;;;;;;4374515;32;346284;-80
2023/08/12 11:52:52;;;;;;;10.52;2.03;;;;;;;;;;4377850;32;316943;-80
2023/08/12 11:55:22;;;;;;;3.20;1.73;;;;;;;;;;4372932;32;318760;-80
2023/08/12 11:57:49;;;;;;;1.90;1.60;;;;;;;;;;4384054;32;316548;-81
2023/08/12 12:00:18;;;;;;;2.22;1.70;;;;;;;;;;4374765;32;317583;-80
2023/08/12 12:02:50;;;;;;;1.70;1.20;;;;;;;;;;4384947;32;316584;-79
2023/08/12 12:05:18;;;;;;;1.75;1.60;;;;;;;;;;4364897;32;316479;-80
2023/08/12 12:07:45;;;;;;;2.28;1.60;;;;;;;;;;4373421;32;316675;-80
2023/08/12 12:10:14;;;;;;;2.70;2.20;;;;;;;;;;4359773;32;316807;-80
2023/08/12 12:12:42;;;;;;;1.60;1.23;;;;;;;;;;4378648;32;317424;-80
2023/08/12 12:15:09;;;;;;;1.75;1.27;;;;;;;;;;4354279;32;317218;-80
2023/08/12 12:17:40;;;;;;;1.40;1.30;;;;;;;;;;4381991;32;347681;-80
2023/08/12 12:20:11;;;;;;;1.95;1.75;;;;;;;;;;4374944;32;317259;-80
2023/08/12 12:22:38;;;;;;;2.80;1.60;;;;;;;;;;4373258;32;317525;-80
2023/08/12 12:25:08;;;;;;;2.05;1.40;;;;;;;;;;4353676;32;317716;-80
2023/08/12 12:27:35;;;;;;;7.57;1.60;;;;;;;;;;4368407;32;316496;-80
2023/08/12 12:30:04;;;;;;;2.12;1.40;;;;;;;;;;4358965;32;317500;-80
2023/08/12 12:32:32;;;;;;;6.03;1.85;;;;;;;;;;4369556;32;316875;-80
2023/08/12 12:34:59;;;;;;;3.62;1.40;;;;;;;;;;4369630;32;316491;-81
2023/08/12 12:37:26;;;;;;;2.12;1.65;;;;;;;;;;4356863;32;416570;-81
2023/08/12 12:39:52;;;;;;;1.95;1.60;;;;;;;;;;4380247;32;316514;-80
2023/08/12 12:42:19;;;;;;;1.87;1.52;;;;;;;;;;4367188;32;317373;-81
2023/08/12 12:44:46;;;;;;;1.52;1.30;;;;;;;;;;4384921;32;317172;-80
2023/08/12 12:47:14;;;;;;;2.15;1.60;;;;;;;;;;4368541;32;317286;-80
2023/08/12 12:49:42;;;;;;;1.67;1.33;;;;;;;;;;4383809;32;316913;-80
2023/08/12 12:52:09;;;;;;;3.25;2.03;;;;;;;;;;4366219;32;356325;-80
2023/08/12 12:54:36;;;;;;;2.78;1.62;;;;;;;;;;4377912;32;316790;-80
2023/08/12 12:57:04;;;;;;;1.52;1.20;;;;;;;;;;4366544;32;317219;-81
2023/08/12 12:59:30;;;;;;;2.45;1.60;;;;;;;;;;4368491;32;317211;-80
2023/08/12 13:01:57;;;;;;;2.28;1.35;;;;;;;;;;4367897;32;316620;-81
2023/08/12 13:04:25;;;;;;;5.43;1.50;;;;;;;;;;4344397;32;327445;-81
2023/08/12 13:06:52;;;;;;;1.73;1.42;;;;;;;;;;4353176;32;316792;-80
2023/08/12 13:09:19;;;;;;;2.08;1.27;;;;;;;;;;4344279;32;316811;-80
2023/08/12 13:11:46;;;;;;;1.98;1.35;;;;;;;;;;4353781;32;317051;-80
2023/08/12 13:14:12;;;;;;;1.98;1.40;;;;;;;;;;4344231;32;316744;-80
2023/08/12 13:16:39;;;;;;;6.40;1.30;;;;;;;;;;4353087;32;316616;-80
2023/08/12 13:19:06;;;;;;;5.87;1.48;;;;;;;;;;4343960;32;331147;-80
2023/08/12 13:21:34;;;;;;;2.12;1.45;;;;;;;;;;4353960;32;316803;-81
2023/08/12 13:24:01;;;;;;;1.87;1.33;;;;;;;;;;4343892;32;317114;-80
2023/08/12 13:26:28;;;;;;;1.73;1.27;;;;;;;;;;4348255;32;317287;-80
2023/08/12 13:28:55;;;;;;;2.00;1.10;;;;;;;;;;4343738;32;317453;-81
2023/08/12 13:31:22;;;;;;;4.18;1.55;;;;;;;;;;4343913;32;316796;-81
2023/08/12 13:33:48;;;;;;;2.05;1.40;;;;;;;;;;4352887;32;317439;-81
2023/08/12 13:36:15;;;;;;;4.30;1.52;;;;;;;;;;4329513;32;342703;-81
2023/08/12 13:38:43;;;;;;;3.40;1.45;;;;;;;;;;4353929;32;317658;-80
2023/08/12 13:41:10;;;;;;;1.67;1.35;;;;;;;;;;4343759;32;317383;-81
2023/08/12 13:43:37;;;;;;;2.17;1.30;;;;;;;;;;4353733;32;316772;-81
2023/08/12 13:46:04;;;;;;;3.97;1.40;;;;;;;;;;4344191;32;317606;-81
2023/08/12 13:48:31;;;;;;;4.37;1.48;;;;;;;;;;4353652;32;317250;-80
2023/08/12 13:50:57;;;;;;;5.82;1.70;;;;;;;;;;4352431;32;317508;-80
2023/08/12 13:53:24;;;;;;;5.12;1.45;;;;;;;;;;4343061;32;317308;-80
2023/08/12 13:55:53;;;;;;;2.83;1.58;;;;;;;;;;4345408;32;317427;-81
2023/08/12 13:58:19;;;;;;;1.90;1.60;;;;;;;;;;4335782;32;316702;-80
2023/08/12 14:00:46;;;;;;;2.58;1.67;;;;;;;;;;4355899;32;316756;-80
2023/08/12 14:03:13;;;;;;;3.62;1.55;;;;;;;;;;4355810;32;317729;-80
2023/08/12 14:05:40;;;;;;;1.58;1.40;;;;;;;;;;4354110;32;317440;-80
2023/08/12 14:08:06;;;;;;;3.20;1.45;;;;;;;;;;4343087;32;317410;-81
2023/08/12 14:10:33;;;;;;;4.82;1.48;;;;;;;;;;4352720;32;316663;-80
2023/08/12 14:13:01;;;;;;;2.85;1.60;;;;;;;;;;4343637;32;317707;-81
2023/08/12 14:15:28;;;;;;;4.10;2.00;;;;;;;;;;4349224;32;316690;-81
2023/08/12 14:17:55;;;;;;;3.78;1.98;;;;;;;;;;4362279;32;317442;-80
2023/08/12 14:20:22;;;;;;;2.40;1.67;;;;;;;;;;4342172;32;317042;-81
2023/08/12 14:22:48;;;;;;;2.15;1.45;;;;;;;;;;4352135;32;317372;-81
2023/08/12 14:25:15;;;;;;;2.97;1.50;;;;;;;;;;4343281;32;316695;-81
2023/08/12 14:27:42;;;;;;;3.00;1.60;;;;;;;;;;4353080;32;317314;-81
2023/08/12 14:30:12;;;;;;;2.00;1.42;;;;;;;;;;4350168;32;316846;-81